createdAt,value
2023-02-02T00:01:50.415Z,2.65
2023-02-02T00:04:18.140Z,3.00
2023-02-02T00:06:45.873Z,3.10
2023-02-02T00:09:13.187Z,2.72
2023-02-02T00:11:39.756Z,3.22
2023-02-02T00:14:07.768Z,3.38
2023-02-02T00:16:36.321Z,3.00
2023-02-02T00:19:04.520Z,3.35
2023-02-02T00:21:30.942Z,3.35
2023-02-02T00:23:57.218Z,3.45
2023-02-02T00:26:23.860Z,3.63
2023-02-02T00:28:50.156Z,4.00
2023-02-02T00:31:16.544Z,3.70
2023-02-02T00:33:46.474Z,3.83
2023-02-02T00:36:12.762Z,3.60
2023-02-02T00:38:39.046Z,3.88
2023-02-02T00:41:05.654Z,3.65
2023-02-02T00:43:31.924Z,3.80
2023-02-02T00:45:58.890Z,3.88
2023-02-02T00:48:28.115Z,4.13
2023-02-02T00:50:54.668Z,3.90
2023-02-02T00:53:21.692Z,4.13
2023-02-02T00:55:47.960Z,4.30
2023-02-02T00:58:14.285Z,4.22
2023-02-02T01:00:40.619Z,4.07
2023-02-02T01:03:07.575Z,4.25
2023-02-02T01:05:34.437Z,3.90
2023-02-02T01:08:00.925Z,4.20
2023-02-02T01:10:28.271Z,4.40
2023-02-02T01:12:54.556Z,4.30
2023-02-02T01:15:20.818Z,3.33
2023-02-02T01:17:48.898Z,3.80
2023-02-02T01:20:16.508Z,3.67
2023-02-02T01:22:42.767Z,4.47
2023-02-02T01:25:09.177Z,4.07
2023-02-02T01:27:35.449Z,4.72
2023-02-02T01:30:01.805Z,4.10
2023-02-02T01:32:28.610Z,3.72
2023-02-02T01:34:54.942Z,3.90
2023-02-02T01:37:22.175Z,4.68
2023-02-02T01:39:49.071Z,4.13
2023-02-02T01:42:19.733Z,4.82
2023-02-02T01:44:52.219Z,3.90
2023-02-02T01:47:19.604Z,4.30
2023-02-02T01:49:46.142Z,3.95
2023-02-02T01:52:13.648Z,4.38
2023-02-02T01:54:46.191Z,4.22
2023-02-02T01:57:15.557Z,4.38
2023-02-02T01:59:44.424Z,4.13
2023-02-02T02:02:10.915Z,4.50
2023-02-02T02:04:37.597Z,4.07
2023-02-02T02:07:05.087Z,4.55
2023-02-02T02:09:31.541Z,4.43
2023-02-02T02:11:58.501Z,4.47
2023-02-02T02:14:43.478Z,4.07
2023-02-02T02:17:15.860Z,4.10
2023-02-02T02:20:16.325Z,4.40
2023-02-02T02:23:20.455Z,4.78
2023-02-02T02:26:24.359Z,4.13
2023-02-02T02:29:10.221Z,5.00
2023-02-02T02:31:43.753Z,4.70
2023-02-02T02:34:15.845Z,4.85
2023-02-02T02:36:42.132Z,4.45
2023-02-02T02:39:14.828Z,4.95
2023-02-02T02:41:52.368Z,4.90
2023-02-02T02:44:19.228Z,4.70
2023-02-02T02:46:45.656Z,4.75
2023-02-02T02:49:12.779Z,5.13
2023-02-02T02:51:42.942Z,4.53
2023-02-02T02:54:13.694Z,5.13
2023-02-02T02:56:59.130Z,4.97
2023-02-02T02:59:34.565Z,6.13
2023-02-02T03:02:00.861Z,4.43
2023-02-02T03:04:31.147Z,4.75
2023-02-02T03:07:00.102Z,4.53
2023-02-02T03:09:29.391Z,4.50
2023-02-02T03:11:56.629Z,4.22
2023-02-02T03:14:22.901Z,4.90
2023-02-02T03:16:50.784Z,5.13
2023-02-02T03:19:17.111Z,4.60
2023-02-02T03:21:43.417Z,4.50
2023-02-02T03:24:09.729Z,4.15
2023-02-02T03:26:36.065Z,4.15
2023-02-02T03:29:02.460Z,4.43
2023-02-02T03:31:29.581Z,3.95
2023-02-02T03:33:56.092Z,3.97
2023-02-02T03:36:22.781Z,3.88
2023-02-02T03:38:49.107Z,4.05
2023-02-02T03:41:15.401Z,3.72
2023-02-02T03:43:41.684Z,3.80
2023-02-02T03:46:08.041Z,4.10
2023-02-02T03:48:35.396Z,4.38
2023-02-02T03:51:04.773Z,3.78
2023-02-02T03:53:31.063Z,4.13
2023-02-02T03:55:57.320Z,4.38
2023-02-02T03:58:23.781Z,4.13
2023-02-02T04:00:50.227Z,4.65
2023-02-02T04:03:16.565Z,4.22
2023-02-02T04:05:42.871Z,4.25
2023-02-02T04:08:09.157Z,4.75
2023-02-02T04:10:35.413Z,4.65
2023-02-02T04:13:01.697Z,4.30
2023-02-02T04:15:28.041Z,3.80
2023-02-02T04:17:54.320Z,3.95
2023-02-02T04:20:20.627Z,5.55
2023-02-02T04:22:46.873Z,4.00
2023-02-02T04:25:13.133Z,4.45
2023-02-02T04:27:39.491Z,4.65
2023-02-02T04:30:06.125Z,4.00
2023-02-02T04:32:32.523Z,4.20
2023-02-02T04:34:58.979Z,4.15
2023-02-02T04:37:25.262Z,3.90
2023-02-02T04:39:51.630Z,3.78
2023-02-02T04:42:17.977Z,4.03
2023-02-02T04:44:45.739Z,3.75
2023-02-02T04:47:12.314Z,4.00
2023-02-02T04:49:38.612Z,3.97
2023-02-02T04:52:05.168Z,3.90
2023-02-02T04:54:32.162Z,4.15
2023-02-02T04:56:58.421Z,3.83
2023-02-02T04:59:24.855Z,3.70
2023-02-02T05:01:51.254Z,3.67
2023-02-02T05:04:17.575Z,3.70
2023-02-02T05:06:43.843Z,3.40
2023-02-02T05:09:10.618Z,3.47
2023-02-02T05:11:38.825Z,4.10
2023-02-02T05:14:05.464Z,3.45
2023-02-02T05:16:31.768Z,4.07
2023-02-02T05:18:59.279Z,3.13
2023-02-02T05:21:25.655Z,3.13
2023-02-02T05:23:52.014Z,3.70
2023-02-02T05:26:21.092Z,3.60
2023-02-02T05:28:48.334Z,3.40
2023-02-02T05:31:14.895Z,3.50
2023-02-02T05:33:41.217Z,3.50
2023-02-02T05:36:07.694Z,3.17
2023-02-02T05:38:34.515Z,3.25
2023-02-02T05:41:01.246Z,3.65
2023-02-02T05:43:28.123Z,2.95
2023-02-02T05:45:54.528Z,3.13
2023-02-02T05:48:20.854Z,3.13
2023-02-02T05:50:50.099Z,3.40
2023-02-02T05:53:16.620Z,3.00
2023-02-02T05:55:42.889Z,3.20
2023-02-02T05:58:09.220Z,3.00
2023-02-02T06:00:35.530Z,3.53
2023-02-02T06:03:01.914Z,3.45
2023-02-02T06:05:28.255Z,2.67
2023-02-02T06:07:54.517Z,3.25
2023-02-02T06:10:20.848Z,3.20
2023-02-02T06:12:47.117Z,2.80
2023-02-02T06:15:13.413Z,3.15
2023-02-02T06:17:39.702Z,3.00
2023-02-02T06:20:06.158Z,2.75
2023-02-02T06:22:32.515Z,3.17
2023-02-02T06:24:58.897Z,2.38
2023-02-02T06:27:25.535Z,2.30
2023-02-02T06:29:51.856Z,2.97
2023-02-02T06:32:18.174Z,2.42
2023-02-02T06:34:44.498Z,2.75
2023-02-02T06:37:10.888Z,3.20
2023-02-02T06:39:38.792Z,2.70
2023-02-02T06:42:20.076Z,2.97
2023-02-02T06:44:47.287Z,3.00
2023-02-02T06:47:13.605Z,3.25
2023-02-02T06:49:39.876Z,3.10
2023-02-02T06:52:06.905Z,3.45
2023-02-02T06:54:33.267Z,3.20
2023-02-02T06:56:59.557Z,2.92
2023-02-02T06:59:25.882Z,3.63
2023-02-02T07:01:52.224Z,2.88
2023-02-02T07:04:18.703Z,3.35
2023-02-02T07:06:45.247Z,3.33
2023-02-02T07:09:11.558Z,3.38
2023-02-02T07:11:41.315Z,3.55
2023-02-02T07:14:11.292Z,3.75
2023-02-02T07:16:37.620Z,4.10
2023-02-02T07:19:03.960Z,3.63
2023-02-02T07:21:35.275Z,3.20
2023-02-02T07:24:02.587Z,3.28
2023-02-02T07:26:29.154Z,3.50
2023-02-02T07:28:55.770Z,3.47
2023-02-02T07:31:23.436Z,3.40
2023-02-02T07:33:49.906Z,3.63
2023-02-02T07:36:17.438Z,3.63
2023-02-02T07:38:44.443Z,3.42
2023-02-02T07:41:10.785Z,3.70
2023-02-02T07:43:37.158Z,3.15
2023-02-02T07:46:04.699Z,3.30
2023-02-02T07:48:31.027Z,3.35
2023-02-02T07:51:04.662Z,3.08
2023-02-02T07:53:31.247Z,3.75
2023-02-02T07:56:10.645Z,3.42
2023-02-02T07:58:37.346Z,3.20
2023-02-02T08:01:04.688Z,3.38
2023-02-02T08:03:31.471Z,3.50
2023-02-02T08:05:58.433Z,3.35
2023-02-02T08:08:24.806Z,3.28
2023-02-02T08:10:51.783Z,3.20
2023-02-02T08:13:18.381Z,3.03
2023-02-02T08:15:44.890Z,4.00
2023-02-02T08:18:11.314Z,4.05
2023-02-02T08:20:37.606Z,3.47
2023-02-02T08:23:03.911Z,3.42
2023-02-02T08:25:30.184Z,3.88
2023-02-02T08:28:01.254Z,2.88
2023-02-02T08:30:27.699Z,2.88
2023-02-02T08:32:54.013Z,3.20
2023-02-02T08:35:21.605Z,3.30
2023-02-02T08:37:49.200Z,3.25
2023-02-02T08:40:15.613Z,3.08
2023-02-02T08:42:43.333Z,2.80
2023-02-02T08:46:02.186Z,3.00
2023-02-02T08:48:10.353Z,2.97
2023-02-02T08:50:36.983Z,2.83
2023-02-02T08:53:03.337Z,2.70
2023-02-02T08:55:29.691Z,2.75
2023-02-02T08:57:56.083Z,2.92
2023-02-02T09:00:22.567Z,2.75
2023-02-02T09:02:51.795Z,2.80
2023-02-02T09:05:18.742Z,3.10
2023-02-02T09:07:45.575Z,2.78
2023-02-02T09:10:11.887Z,2.70
2023-02-02T09:12:38.208Z,2.60
2023-02-02T09:15:04.644Z,2.75
2023-02-02T09:17:30.979Z,2.90
2023-02-02T09:19:57.300Z,3.17
2023-02-02T09:22:23.637Z,3.67
2023-02-02T09:24:49.970Z,3.40
2023-02-02T09:27:16.295Z,2.90
2023-02-02T09:29:42.717Z,3.15
2023-02-02T09:32:09.367Z,3.45
2023-02-02T09:34:35.813Z,2.63
2023-02-02T09:37:02.151Z,3.03
2023-02-02T09:39:28.672Z,2.60
2023-02-02T09:42:13.555Z,2.70
2023-02-02T09:44:49.034Z,2.83
2023-02-02T09:47:21.408Z,2.58
2023-02-02T09:49:47.786Z,2.90
2023-02-02T09:52:16.258Z,3.00
2023-02-02T09:54:44.632Z,2.97
2023-02-02T09:57:15.000Z,2.90
2023-02-02T09:59:41.937Z,3.03
2023-02-02T10:02:31.996Z,2.65
2023-02-02T10:05:02.217Z,2.25
2023-02-02T10:07:33.286Z,2.40
2023-02-02T10:10:02.426Z,2.70
2023-02-02T10:12:36.033Z,3.00
2023-02-02T10:15:13.049Z,2.38
2023-02-02T10:17:48.785Z,2.53
2023-02-02T10:20:26.383Z,2.72
2023-02-02T10:22:54.398Z,2.50
2023-02-02T10:25:22.502Z,2.60
2023-02-02T10:28:00.877Z,2.20
2023-02-02T10:30:37.199Z,2.83
2023-02-02T10:33:09.948Z,2.33
2023-02-02T10:35:44.021Z,2.17
2023-02-02T10:38:17.603Z,2.00
2023-02-02T10:40:43.887Z,1.90
2023-02-02T10:43:47.570Z,1.40
2023-02-02T10:46:18.574Z,1.30
2023-02-02T10:48:48.661Z,1.13
2023-02-02T10:51:21.012Z,1.13
2023-02-02T10:53:51.116Z,1.60
2023-02-02T10:56:20.791Z,1.70
2023-02-02T10:58:57.979Z,1.67
2023-02-02T11:01:24.370Z,1.50
2023-02-02T11:04:13.588Z,1.50
2023-02-02T11:06:52.310Z,1.35
2023-02-02T11:09:28.489Z,1.58
2023-02-02T11:11:57.354Z,1.70
2023-02-02T11:14:41.877Z,1.50
2023-02-02T11:17:18.545Z,1.60
2023-02-02T11:19:45.190Z,1.70
2023-02-02T11:22:24.399Z,1.42
2023-02-02T11:24:52.027Z,1.50
2023-02-02T11:27:21.347Z,1.38
2023-02-02T11:29:57.998Z,1.58
2023-02-02T11:32:30.632Z,1.52
2023-02-02T11:35:12.778Z,1.50
2023-02-02T11:37:51.339Z,2.00
2023-02-02T11:40:20.735Z,2.20
2023-02-02T11:42:47.602Z,1.70
2023-02-02T11:45:18.645Z,1.58
2023-02-02T11:47:45.291Z,1.90
2023-02-02T11:50:20.092Z,1.73
2023-02-02T11:52:46.456Z,1.58
2023-02-02T11:55:17.903Z,1.77
2023-02-02T11:58:04.207Z,1.42
2023-02-02T12:00:30.692Z,1.80
2023-02-02T12:02:58.172Z,1.70
2023-02-02T12:05:35.236Z,1.98
2023-02-02T12:08:01.553Z,2.05
2023-02-02T12:10:36.754Z,1.63
2023-02-02T12:13:07.455Z,1.50
2023-02-02T12:15:39.694Z,1.50
2023-02-02T12:18:09.053Z,1.50
2023-02-02T12:20:45.501Z,1.70
2023-02-02T12:23:23.887Z,1.50
2023-02-02T12:26:07.437Z,1.58
2023-02-02T12:28:36.647Z,1.58
2023-02-02T12:31:26.515Z,1.70
2023-02-02T12:34:10.069Z,1.50
2023-02-02T12:36:47.376Z,1.38
2023-02-02T12:39:20.525Z,1.42
2023-02-02T12:41:52.839Z,2.03
2023-02-02T12:44:26.523Z,1.50
2023-02-02T12:46:57.649Z,1.40
2023-02-02T12:49:23.925Z,1.52
2023-02-02T12:51:50.195Z,2.03
2023-02-02T12:54:42.223Z,1.70
2023-02-02T12:57:13.097Z,1.40
2023-02-02T12:59:45.452Z,1.70
2023-02-02T13:02:30.221Z,1.73
2023-02-02T13:04:59.562Z,1.50
2023-02-02T13:07:25.906Z,1.67
2023-02-02T13:10:13.016Z,1.75
2023-02-02T13:12:42.546Z,1.65
2023-02-02T13:15:12.185Z,1.60
2023-02-02T13:17:49.418Z,1.80
2023-02-02T13:20:37.187Z,1.90
2023-02-02T13:23:13.483Z,1.55
2023-02-02T13:25:45.342Z,1.80
2023-02-02T13:28:17.486Z,1.60
2023-02-02T13:30:46.339Z,1.70
2023-02-02T13:33:18.447Z,1.50
2023-02-02T13:35:47.991Z,1.75
2023-02-02T13:38:24.534Z,1.70
2023-02-02T13:40:53.309Z,1.50
2023-02-02T13:43:29.183Z,1.60
2023-02-02T13:46:00.587Z,1.98
2023-02-02T13:48:45.841Z,1.80
2023-02-02T13:51:12.159Z,1.75
2023-02-02T13:53:50.735Z,1.60
2023-02-02T13:56:20.237Z,1.80
2023-02-02T13:58:58.810Z,1.60
2023-02-02T14:01:25.446Z,1.50
2023-02-02T14:03:56.128Z,1.60
2023-02-02T14:06:23.754Z,1.70
2023-02-02T14:09:01.378Z,1.60
2023-02-02T14:11:30.751Z,1.70
2023-02-02T14:14:17.679Z,1.60
2023-02-02T14:16:45.934Z,1.65
2023-02-02T14:19:40.776Z,1.67
2023-02-02T14:22:14.281Z,1.60
2023-02-02T14:24:43.955Z,1.77
2023-02-02T14:27:10.474Z,1.60
2023-02-02T14:29:57.147Z,1.83
2023-02-02T14:32:27.707Z,1.60
2023-02-02T14:34:58.769Z,1.55
2023-02-02T14:37:26.185Z,1.67
2023-02-02T14:40:01.622Z,1.63
2023-02-02T14:43:05.636Z,1.48
2023-02-02T14:45:33.352Z,1.63
2023-02-02T14:48:01.775Z,1.67
2023-02-02T14:50:37.493Z,1.77
2023-02-02T14:53:06.576Z,1.60
2023-02-02T14:55:33.310Z,1.50
2023-02-02T14:58:01.211Z,1.67
2023-02-02T15:00:30.001Z,1.55
2023-02-02T15:02:56.571Z,1.67
2023-02-02T15:05:38.817Z,1.80
2023-02-02T15:08:13.474Z,1.60
2023-02-02T15:10:54.742Z,1.67
2023-02-02T15:13:21.785Z,1.95
2023-02-02T15:15:49.157Z,1.80
2023-02-02T15:18:18.345Z,1.80
2023-02-02T15:20:51.990Z,1.60
2023-02-02T15:23:22.273Z,1.70
2023-02-02T15:26:04.080Z,1.65
2023-02-02T15:28:54.393Z,1.90
2023-02-02T15:31:24.079Z,1.88
2023-02-02T15:33:52.169Z,1.80
2023-02-02T15:36:21.372Z,2.00
2023-02-02T15:38:49.382Z,1.70
2023-02-02T15:41:21.167Z,1.70
2023-02-02T15:43:47.475Z,1.52
2023-02-02T15:46:16.049Z,2.38
2023-02-02T15:48:43.680Z,1.80
2023-02-02T15:51:17.337Z,1.55
2023-02-02T15:53:43.668Z,1.63
2023-02-02T15:56:25.087Z,1.95
2023-02-02T15:58:52.908Z,2.13
2023-02-02T16:01:21.276Z,1.90
2023-02-02T16:03:50.071Z,2.25
2023-02-02T16:06:17.147Z,1.90
2023-02-02T16:08:43.734Z,2.40
2023-02-02T16:11:11.650Z,1.70
2023-02-02T16:13:38.408Z,2.10
2023-02-02T16:16:06.810Z,2.53
2023-02-02T16:18:33.954Z,2.20
2023-02-02T16:21:01.848Z,2.30
2023-02-02T16:23:30.686Z,2.30
2023-02-02T16:25:58.350Z,2.25
2023-02-02T16:28:24.948Z,2.50
2023-02-02T16:30:52.072Z,2.00
2023-02-02T16:33:34.639Z,1.88
2023-02-02T16:36:01.268Z,1.77
2023-02-02T16:38:34.401Z,2.03
2023-02-02T16:41:10.865Z,2.03
2023-02-02T16:43:38.493Z,2.25
2023-02-02T16:46:07.306Z,1.88
2023-02-02T16:48:44.795Z,1.90
2023-02-02T16:51:16.964Z,1.80
2023-02-02T16:53:44.965Z,1.90
2023-02-02T16:56:20.395Z,2.40
2023-02-02T16:58:46.773Z,2.28
2023-02-02T17:01:15.840Z,2.40
2023-02-02T17:04:00.900Z,2.70
2023-02-02T17:06:45.559Z,2.65
2023-02-02T17:09:20.986Z,2.30
2023-02-02T17:11:57.789Z,3.13
2023-02-02T17:14:27.842Z,2.50
2023-02-02T17:16:54.166Z,3.00
2023-02-02T17:19:20.472Z,2.00
2023-02-02T17:21:49.488Z,1.98
2023-02-02T17:24:16.930Z,2.38
2023-02-02T17:26:43.584Z,1.98
2023-02-02T17:29:12.605Z,2.15
2023-02-02T17:31:39.140Z,1.95
2023-02-02T17:34:09.627Z,1.95
2023-02-02T17:36:35.950Z,2.00
2023-02-02T17:39:02.247Z,2.17
2023-02-02T17:41:28.518Z,1.67
2023-02-02T17:43:54.846Z,1.90
2023-02-02T17:46:21.212Z,1.70
2023-02-02T17:48:47.568Z,1.70
2023-02-02T17:51:17.475Z,1.60
2023-02-02T17:53:44.481Z,1.88
2023-02-02T17:56:10.891Z,1.85
2023-02-02T17:58:37.255Z,1.70
2023-02-02T18:01:04.268Z,1.90
2023-02-02T18:03:34.264Z,2.40
2023-02-02T18:06:01.640Z,2.22
2023-02-02T18:08:29.196Z,1.60
2023-02-02T18:10:55.515Z,2.15
2023-02-02T18:13:23.111Z,2.70
2023-02-02T18:15:50.078Z,1.88
2023-02-02T18:18:16.449Z,2.15
2023-02-02T18:20:43.453Z,1.60
2023-02-02T18:23:10.232Z,2.25
2023-02-02T18:25:37.593Z,2.00
2023-02-02T18:28:03.940Z,1.92
2023-02-02T18:30:30.382Z,2.00
2023-02-02T18:32:56.677Z,2.20
2023-02-02T18:35:23.085Z,1.80
2023-02-02T18:37:49.551Z,1.70
2023-02-02T18:40:16.402Z,2.28
2023-02-02T18:42:42.768Z,1.90
2023-02-02T18:45:09.341Z,2.17
2023-02-02T18:47:35.681Z,1.90
2023-02-02T18:50:01.947Z,1.77
2023-02-02T18:52:31.486Z,1.95
2023-02-02T18:54:57.784Z,1.75
2023-02-02T18:57:24.116Z,1.70
2023-02-02T18:59:52.638Z,1.70
2023-02-02T19:02:19.422Z,1.80
2023-02-02T19:05:04.453Z,1.70
2023-02-02T19:07:49.691Z,1.90
2023-02-02T19:10:17.526Z,1.73
2023-02-02T19:12:58.290Z,2.42
2023-02-02T19:15:26.602Z,1.88
2023-02-02T19:17:54.157Z,2.40
2023-02-02T19:20:24.891Z,1.85
2023-02-02T19:22:53.692Z,1.98
2023-02-02T19:25:20.007Z,1.98
2023-02-02T19:27:46.293Z,1.90
2023-02-02T19:30:18.176Z,1.80
2023-02-02T19:32:44.489Z,2.10
2023-02-02T19:35:15.908Z,2.42
2023-02-02T19:37:43.213Z,2.28
2023-02-02T19:40:09.527Z,2.63
2023-02-02T19:42:38.826Z,2.40
2023-02-02T19:45:26.564Z,2.10
2023-02-02T19:47:53.571Z,1.92
2023-02-02T19:50:21.277Z,2.47
2023-02-02T19:52:48.797Z,2.08
2023-02-02T19:55:21.553Z,2.53
2023-02-02T19:57:47.898Z,2.78
2023-02-02T20:00:21.902Z,2.33
2023-02-02T20:02:48.301Z,2.10
2023-02-02T20:05:17.494Z,3.13
2023-02-02T20:07:43.916Z,2.22
2023-02-02T20:10:14.113Z,2.10
2023-02-02T20:12:40.453Z,2.60
2023-02-02T20:15:28.184Z,2.60
2023-02-02T20:17:55.921Z,2.92
2023-02-02T20:20:27.158Z,2.50
2023-02-02T20:22:54.223Z,2.78
2023-02-02T20:25:20.560Z,2.42
2023-02-02T20:27:46.885Z,2.50
2023-02-02T20:30:27.548Z,2.80
2023-02-02T20:32:58.493Z,2.33
2023-02-02T20:35:29.129Z,2.50
2023-02-02T20:37:55.766Z,2.97
2023-02-02T20:40:22.112Z,3.25
2023-02-02T20:42:48.758Z,3.15
2023-02-02T20:45:17.258Z,2.70
2023-02-02T20:47:44.160Z,3.50
2023-02-02T20:50:11.042Z,4.40
2023-02-02T20:52:37.426Z,3.35
2023-02-02T20:55:04.049Z,3.60
2023-02-02T20:57:32.126Z,3.42
2023-02-02T20:59:59.590Z,3.63
2023-02-02T21:02:26.290Z,2.90
2023-02-02T21:04:52.926Z,2.60
2023-02-02T21:07:20.388Z,2.95
2023-02-02T21:09:48.020Z,2.53
2023-02-02T21:12:14.665Z,2.60
2023-02-02T21:14:41.297Z,2.65
2023-02-02T21:17:14.766Z,3.15
2023-02-02T21:19:41.609Z,3.15
2023-02-02T21:22:07.931Z,2.80
2023-02-02T21:24:34.198Z,2.78
2023-02-02T21:27:01.862Z,3.83
2023-02-02T21:29:31.154Z,3.00
2023-02-02T21:32:00.658Z,3.08
2023-02-02T21:34:27.563Z,2.95
2023-02-02T21:36:57.080Z,3.15
2023-02-02T21:39:24.845Z,2.97
2023-02-02T21:41:55.156Z,3.20
2023-02-02T21:44:22.377Z,3.03
2023-02-02T21:46:49.965Z,2.53
2023-02-02T21:49:26.523Z,3.30
2023-02-02T21:51:57.186Z,2.78
2023-02-02T21:54:24.938Z,2.83
2023-02-02T21:56:51.953Z,3.00
2023-02-02T21:59:22.766Z,2.83
2023-02-02T22:01:50.067Z,2.88
2023-02-02T22:04:26.665Z,3.35
2023-02-02T22:06:53.887Z,3.00
2023-02-02T22:09:21.974Z,3.10
2023-02-02T22:11:59.153Z,2.75
2023-02-02T22:14:31.540Z,2.72
2023-02-02T22:16:58.830Z,2.90
2023-02-02T22:19:25.089Z,3.03
2023-02-02T22:21:51.704Z,2.63
2023-02-02T22:24:18.002Z,2.50
2023-02-02T22:26:44.281Z,3.00
2023-02-02T22:29:16.163Z,2.83
2023-02-02T22:31:42.552Z,3.17
2023-02-02T22:34:08.972Z,3.38
2023-02-02T22:36:35.269Z,3.50
2023-02-02T22:39:01.589Z,3.17
2023-02-02T22:41:28.018Z,3.10
2023-02-02T22:43:54.305Z,3.38
2023-02-02T22:46:20.660Z,3.30
2023-02-02T22:48:47.059Z,3.28
2023-02-02T22:51:13.346Z,3.05
2023-02-02T22:53:39.635Z,3.30
2023-02-02T22:56:06.103Z,3.13
2023-02-02T22:58:32.587Z,2.95
2023-02-02T23:00:59.194Z,3.28
2023-02-02T23:03:25.501Z,2.95
2023-02-02T23:05:51.771Z,3.10
2023-02-02T23:08:18.049Z,3.22
2023-02-02T23:10:44.322Z,3.30
2023-02-02T23:13:10.644Z,2.97
2023-02-02T23:15:36.966Z,3.17
2023-02-02T23:18:03.794Z,3.00
2023-02-02T23:20:30.222Z,3.55
2023-02-02T23:22:56.526Z,2.95
2023-02-02T23:25:22.818Z,3.17
2023-02-02T23:27:49.222Z,3.30
2023-02-02T23:30:15.617Z,2.78
2023-02-02T23:32:41.906Z,2.63
2023-02-02T23:35:10.414Z,2.85
2023-02-02T23:37:37.238Z,3.30
2023-02-02T23:40:03.726Z,3.10
2023-02-02T23:42:29.996Z,2.90
2023-02-02T23:44:56.525Z,2.60
2023-02-02T23:47:22.818Z,2.95
2023-02-02T23:49:49.107Z,2.58
2023-02-02T23:52:15.453Z,2.80
2023-02-02T23:54:42.148Z,2.90
2023-02-02T23:57:08.474Z,2.75
2023-02-02T23:59:34.804Z,2.60
